sensor_id;sensor_type;location;lat;lon;timestamp;temperature;humidity
26336;DHT22;14047;50.936;4.654;2022-11-15T00:01:36;13.30;99.90
26336;DHT22;14047;50.936;4.654;2022-11-15T00:04:05;13.30;99.90
26336;DHT22;14047;50.936;4.654;2022-11-15T00:06:30;13.40;99.90
26336;DHT22;14047;50.936;4.654;2022-11-15T00:09:00;13.40;99.90
26336;DHT22;14047;50.936;4.654;2022-11-15T00:11:26;13.40;99.90
26336;DHT22;14047;50.936;4.654;2022-11-15T00:13:56;13.40;99.90
26336;DHT22;14047;50.936;4.654;2022-11-15T00:16:22;13.50;99.90
26336;DHT22;14047;50.936;4.654;2022-11-15T00:18:47;13.50;99.90
26336;DHT22;14047;50.936;4.654;2022-11-15T00:21:14;13.50;99.90
26336;DHT22;14047;50.936;4.654;2022-11-15T00:23:40;13.50;99.90
26336;DHT22;14047;50.936;4.654;2022-11-15T00:26:06;13.60;99.90
26336;DHT22;14047;50.936;4.654;2022-11-15T00:28:32;13.60;99.90
26336;DHT22;14047;50.936;4.654;2022-11-15T00:31:02;13.60;99.90
26336;DHT22;14047;50.936;4.654;2022-11-15T00:33:28;13.60;99.90
26336;DHT22;14047;50.936;4.654;2022-11-15T00:35:53;13.60;99.90
26336;DHT22;14047;50.936;4.654;2022-11-15T00:38:24;13.70;99.90
26336;DHT22;14047;50.936;4.654;2022-11-15T00:40:49;13.70;99.90
26336;DHT22;14047;50.936;4.654;2022-11-15T00:43:15;13.70;99.90
26336;DHT22;14047;50.936;4.654;2022-11-15T00:45:40;13.80;99.90
26336;DHT22;14047;50.936;4.654;2022-11-15T00:48:07;13.80;99.90
26336;DHT22;14047;50.936;4.654;2022-11-15T00:50:32;13.80;99.90
26336;DHT22;14047;50.936;4.654;2022-11-15T00:52:58;13.80;99.90
26336;DHT22;14047;50.936;4.654;2022-11-15T00:55:23;13.80;99.90
26336;DHT22;14047;50.936;4.654;2022-11-15T00:57:49;13.80;99.90
26336;DHT22;14047;50.936;4.654;2022-11-15T01:00:15;13.80;99.90
26336;DHT22;14047;50.936;4.654;2022-11-15T01:02:41;13.80;99.90
26336;DHT22;14047;50.936;4.654;2022-11-15T01:05:07;13.80;99.90
26336;DHT22;14047;50.936;4.654;2022-11-15T01:07:33;13.80;99.90
26336;DHT22;14047;50.936;4.654;2022-11-15T01:09:58;13.90;99.90
26336;DHT22;14047;50.936;4.654;2022-11-15T01:12:24;13.80;99.90
26336;DHT22;14047;50.936;4.654;2022-11-15T01:14:50;13.80;99.90
26336;DHT22;14047;50.936;4.654;2022-11-15T01:17:15;13.80;99.90
26336;DHT22;14047;50.936;4.654;2022-11-15T01:19:41;13.90;99.90
26336;DHT22;14047;50.936;4.654;2022-11-15T01:22:06;13.80;99.90
26336;DHT22;14047;50.936;4.654;2022-11-15T01:24:32;13.90;99.90
26336;DHT22;14047;50.936;4.654;2022-11-15T01:26:58;14.00;99.90
26336;DHT22;14047;50.936;4.654;2022-11-15T01:29:23;14.00;99.90
26336;DHT22;14047;50.936;4.654;2022-11-15T01:31:49;14.00;99.90
26336;DHT22;14047;50.936;4.654;2022-11-15T01:34:15;14.00;99.90
26336;DHT22;14047;50.936;4.654;2022-11-15T01:36:40;13.80;99.90
26336;DHT22;14047;50.936;4.654;2022-11-15T01:39:06;13.60;99.90
26336;DHT22;14047;50.936;4.654;2022-11-15T01:41:33;13.60;99.90
26336;DHT22;14047;50.936;4.654;2022-11-15T01:47:12;13.30;99.90
26336;DHT22;14047;50.936;4.654;2022-11-15T01:49:50;13.20;99.90
26336;DHT22;14047;50.936;4.654;2022-11-15T01:52:20;13.20;99.90
26336;DHT22;14047;50.936;4.654;2022-11-15T01:54:53;13.30;99.90
26336;DHT22;14047;50.936;4.654;2022-11-15T01:57:19;13.30;99.90
26336;DHT22;14047;50.936;4.654;2022-11-15T01:59:45;13.40;99.90
26336;DHT22;14047;50.936;4.654;2022-11-15T02:02:12;13.50;99.90
26336;DHT22;14047;50.936;4.654;2022-11-15T02:04:45;13.60;99.90
26336;DHT22;14047;50.936;4.654;2022-11-15T02:07:14;13.60;99.90
26336;DHT22;14047;50.936;4.654;2022-11-15T02:09:42;13.70;99.90
26336;DHT22;14047;50.936;4.654;2022-11-15T02:12:09;13.80;99.90
26336;DHT22;14047;50.936;4.654;2022-11-15T02:14:38;13.90;99.90
26336;DHT22;14047;50.936;4.654;2022-11-15T02:22:27;13.90;99.90
26336;DHT22;14047;50.936;4.654;2022-11-15T02:27:54;13.90;99.90
26336;DHT22;14047;50.936;4.654;2022-11-15T02:33:17;13.80;99.90
26336;DHT22;14047;50.936;4.654;2022-11-15T02:35:52;13.60;99.90
26336;DHT22;14047;50.936;4.654;2022-11-15T02:41:19;13.60;99.90
26336;DHT22;14047;50.936;4.654;2022-11-15T02:44:08;13.70;99.90
26336;DHT22;14047;50.936;4.654;2022-11-15T02:46:44;13.70;99.90
26336;DHT22;14047;50.936;4.654;2022-11-15T02:49:32;13.80;99.90
26336;DHT22;14047;50.936;4.654;2022-11-15T02:51:58;13.90;99.90
26336;DHT22;14047;50.936;4.654;2022-11-15T02:54:31;13.90;99.90
26336;DHT22;14047;50.936;4.654;2022-11-15T02:57:03;14.00;99.90
26336;DHT22;14047;50.936;4.654;2022-11-15T03:05:13;14.20;99.90
26336;DHT22;14047;50.936;4.654;2022-11-15T03:08:00;14.20;99.90
26336;DHT22;14047;50.936;4.654;2022-11-15T03:13:33;14.30;99.90
26336;DHT22;14047;50.936;4.654;2022-11-15T03:16:06;14.30;99.90
26336;DHT22;14047;50.936;4.654;2022-11-15T03:18:40;14.30;99.90
26336;DHT22;14047;50.936;4.654;2022-11-15T03:21:08;14.30;99.90
26336;DHT22;14047;50.936;4.654;2022-11-15T03:23:37;14.40;99.90
26336;DHT22;14047;50.936;4.654;2022-11-15T03:26:07;14.40;99.90
26336;DHT22;14047;50.936;4.654;2022-11-15T03:28:55;14.30;99.90
26336;DHT22;14047;50.936;4.654;2022-11-15T03:31:23;14.30;99.90
26336;DHT22;14047;50.936;4.654;2022-11-15T03:34:27;14.30;99.90
26336;DHT22;14047;50.936;4.654;2022-11-15T03:36:54;14.40;99.90
26336;DHT22;14047;50.936;4.654;2022-11-15T03:39:20;14.40;99.90
26336;DHT22;14047;50.936;4.654;2022-11-15T03:49:53;14.40;99.90
26336;DHT22;14047;50.936;4.654;2022-11-15T03:52:21;14.30;99.90
26336;DHT22;14047;50.936;4.654;2022-11-15T03:54:52;14.10;99.90
26336;DHT22;14047;50.936;4.654;2022-11-15T03:57:18;14.10;99.90
26336;DHT22;14047;50.936;4.654;2022-11-15T03:59:44;14.10;99.90
26336;DHT22;14047;50.936;4.654;2022-11-15T04:02:09;14.10;99.90
26336;DHT22;14047;50.936;4.654;2022-11-15T04:04:35;14.20;99.90
26336;DHT22;14047;50.936;4.654;2022-11-15T04:07:01;14.20;99.90
26336;DHT22;14047;50.936;4.654;2022-11-15T04:09:26;14.10;99.90
26336;DHT22;14047;50.936;4.654;2022-11-15T04:11:52;14.00;99.90
26336;DHT22;14047;50.936;4.654;2022-11-15T04:14:17;13.80;99.90
26336;DHT22;14047;50.936;4.654;2022-11-15T04:16:43;13.60;99.90
26336;DHT22;14047;50.936;4.654;2022-11-15T04:19:08;13.40;99.90
26336;DHT22;14047;50.936;4.654;2022-11-15T04:21:52;13.40;99.90
26336;DHT22;14047;50.936;4.654;2022-11-15T04:24:36;13.20;99.90
26336;DHT22;14047;50.936;4.654;2022-11-15T04:27:02;13.30;99.90
26336;DHT22;14047;50.936;4.654;2022-11-15T04:29:28;13.40;99.90
26336;DHT22;14047;50.936;4.654;2022-11-15T04:32:04;13.20;99.90
26336;DHT22;14047;50.936;4.654;2022-11-15T04:34:30;13.10;99.90
26336;DHT22;14047;50.936;4.654;2022-11-15T04:36:56;13.00;99.90
26336;DHT22;14047;50.936;4.654;2022-11-15T04:39:37;13.00;99.90
26336;DHT22;14047;50.936;4.654;2022-11-15T04:42:03;13.20;99.90
26336;DHT22;14047;50.936;4.654;2022-11-15T04:44:28;13.30;99.90
26336;DHT22;14047;50.936;4.654;2022-11-15T04:46:54;13.40;99.90
26336;DHT22;14047;50.936;4.654;2022-11-15T04:49:20;13.40;99.90
26336;DHT22;14047;50.936;4.654;2022-11-15T04:51:45;13.40;99.90
26336;DHT22;14047;50.936;4.654;2022-11-15T04:54:11;13.40;99.90
26336;DHT22;14047;50.936;4.654;2022-11-15T04:56:37;13.50;99.90
26336;DHT22;14047;50.936;4.654;2022-11-15T04:59:02;13.50;99.90
26336;DHT22;14047;50.936;4.654;2022-11-15T05:01:28;13.60;99.90
26336;DHT22;14047;50.936;4.654;2022-11-15T05:03:53;13.60;99.90
26336;DHT22;14047;50.936;4.654;2022-11-15T05:06:38;13.60;99.90
26336;DHT22;14047;50.936;4.654;2022-11-15T05:09:03;13.50;99.90
26336;DHT22;14047;50.936;4.654;2022-11-15T05:11:29;13.30;99.90
26336;DHT22;14047;50.936;4.654;2022-11-15T05:13:55;13.10;99.90
26336;DHT22;14047;50.936;4.654;2022-11-15T05:16:21;12.90;99.90
26336;DHT22;14047;50.936;4.654;2022-11-15T05:18:46;12.70;99.90
26336;DHT22;14047;50.936;4.654;2022-11-15T05:21:15;12.60;99.90
26336;DHT22;14047;50.936;4.654;2022-11-15T05:23:41;12.80;99.90
26336;DHT22;14047;50.936;4.654;2022-11-15T05:26:08;12.80;99.90
26336;DHT22;14047;50.936;4.654;2022-11-15T05:28:34;12.90;99.90
26336;DHT22;14047;50.936;4.654;2022-11-15T05:31:04;13.00;99.90
26336;DHT22;14047;50.936;4.654;2022-11-15T05:33:31;13.10;99.90
26336;DHT22;14047;50.936;4.654;2022-11-15T05:36:20;13.10;99.90
26336;DHT22;14047;50.936;4.654;2022-11-15T05:38:48;13.10;99.90
26336;DHT22;14047;50.936;4.654;2022-11-15T05:41:17;13.10;99.90
26336;DHT22;14047;50.936;4.654;2022-11-15T05:43:45;13.20;99.90
26336;DHT22;14047;50.936;4.654;2022-11-15T05:46:13;13.20;99.90
26336;DHT22;14047;50.936;4.654;2022-11-15T05:48:42;13.20;99.90
26336;DHT22;14047;50.936;4.654;2022-11-15T05:51:08;13.20;99.90
26336;DHT22;14047;50.936;4.654;2022-11-15T05:53:35;13.10;99.90
26336;DHT22;14047;50.936;4.654;2022-11-15T05:56:03;13.00;99.90
26336;DHT22;14047;50.936;4.654;2022-11-15T05:58:31;12.90;99.90
26336;DHT22;14047;50.936;4.654;2022-11-15T06:00:57;12.90;99.90
26336;DHT22;14047;50.936;4.654;2022-11-15T06:03:23;13.00;99.90
26336;DHT22;14047;50.936;4.654;2022-11-15T06:05:48;12.90;99.90
26336;DHT22;14047;50.936;4.654;2022-11-15T06:08:14;12.80;99.90
26336;DHT22;14047;50.936;4.654;2022-11-15T06:10:39;12.80;99.90
26336;DHT22;14047;50.936;4.654;2022-11-15T06:13:05;12.70;99.90
26336;DHT22;14047;50.936;4.654;2022-11-15T06:15:32;12.70;99.90
26336;DHT22;14047;50.936;4.654;2022-11-15T06:17:59;12.70;99.90
26336;DHT22;14047;50.936;4.654;2022-11-15T06:20:26;12.70;99.90
26336;DHT22;14047;50.936;4.654;2022-11-15T06:22:59;12.60;99.90
26336;DHT22;14047;50.936;4.654;2022-11-15T06:25:26;12.60;99.90
26336;DHT22;14047;50.936;4.654;2022-11-15T06:27:53;12.70;99.90
26336;DHT22;14047;50.936;4.654;2022-11-15T06:30:20;12.60;99.90
26336;DHT22;14047;50.936;4.654;2022-11-15T06:32:45;12.60;99.90
26336;DHT22;14047;50.936;4.654;2022-11-15T06:35:11;12.40;99.90
26336;DHT22;14047;50.936;4.654;2022-11-15T06:37:37;12.40;99.90
26336;DHT22;14047;50.936;4.654;2022-11-15T06:40:02;12.30;99.90
26336;DHT22;14047;50.936;4.654;2022-11-15T06:42:28;12.20;99.90
26336;DHT22;14047;50.936;4.654;2022-11-15T06:44:54;12.10;99.90
26336;DHT22;14047;50.936;4.654;2022-11-15T06:47:19;12.00;99.90
26336;DHT22;14047;50.936;4.654;2022-11-15T06:49:48;11.90;99.90
26336;DHT22;14047;50.936;4.654;2022-11-15T06:52:14;11.80;99.90
26336;DHT22;14047;50.936;4.654;2022-11-15T06:54:39;11.70;99.90
26336;DHT22;14047;50.936;4.654;2022-11-15T06:57:05;11.60;99.90
26336;DHT22;14047;50.936;4.654;2022-11-15T06:59:31;11.50;99.90
26336;DHT22;14047;50.936;4.654;2022-11-15T07:01:57;11.40;99.90
26336;DHT22;14047;50.936;4.654;2022-11-15T07:04:22;11.40;99.90
26336;DHT22;14047;50.936;4.654;2022-11-15T07:06:48;11.40;99.90
26336;DHT22;14047;50.936;4.654;2022-11-15T07:09:14;11.40;99.90
26336;DHT22;14047;50.936;4.654;2022-11-15T07:11:39;11.20;99.90
26336;DHT22;14047;50.936;4.654;2022-11-15T07:14:05;11.20;99.90
26336;DHT22;14047;50.936;4.654;2022-11-15T07:16:31;11.20;99.90
26336;DHT22;14047;50.936;4.654;2022-11-15T07:18:56;11.20;99.90
26336;DHT22;14047;50.936;4.654;2022-11-15T07:21:23;11.10;99.90
26336;DHT22;14047;50.936;4.654;2022-11-15T07:23:49;11.10;99.90
26336;DHT22;14047;50.936;4.654;2022-11-15T07:26:15;11.00;99.90
26336;DHT22;14047;50.936;4.654;2022-11-15T07:28:40;10.90;99.90
26336;DHT22;14047;50.936;4.654;2022-11-15T07:31:07;10.90;99.90
26336;DHT22;14047;50.936;4.654;2022-11-15T07:33:34;10.90;99.90
26336;DHT22;14047;50.936;4.654;2022-11-15T07:36:04;11.00;99.90
26336;DHT22;14047;50.936;4.654;2022-11-15T07:38:30;11.00;99.90
26336;DHT22;14047;50.936;4.654;2022-11-15T07:41:00;11.10;99.90
26336;DHT22;14047;50.936;4.654;2022-11-15T07:43:26;11.00;99.90
26336;DHT22;14047;50.936;4.654;2022-11-15T07:45:56;11.00;99.90
26336;DHT22;14047;50.936;4.654;2022-11-15T07:48:22;10.90;99.90
26336;DHT22;14047;50.936;4.654;2022-11-15T07:50:48;10.90;99.90
26336;DHT22;14047;50.936;4.654;2022-11-15T07:53:13;11.00;99.90
26336;DHT22;14047;50.936;4.654;2022-11-15T07:55:41;11.10;99.90
26336;DHT22;14047;50.936;4.654;2022-11-15T07:58:09;11.10;99.90
26336;DHT22;14047;50.936;4.654;2022-11-15T08:00:35;11.20;99.90
26336;DHT22;14047;50.936;4.654;2022-11-15T08:03:12;11.20;99.90
26336;DHT22;14047;50.936;4.654;2022-11-15T08:05:39;11.30;99.90
26336;DHT22;14047;50.936;4.654;2022-11-15T08:08:06;11.20;99.90
26336;DHT22;14047;50.936;4.654;2022-11-15T08:10:32;11.20;99.90
26336;DHT22;14047;50.936;4.654;2022-11-15T08:13:02;11.30;99.90
26336;DHT22;14047;50.936;4.654;2022-11-15T08:15:28;11.40;99.90
26336;DHT22;14047;50.936;4.654;2022-11-15T08:17:59;11.30;99.90
26336;DHT22;14047;50.936;4.654;2022-11-15T08:20:26;11.40;99.90
26336;DHT22;14047;50.936;4.654;2022-11-15T08:22:55;11.30;99.90
26336;DHT22;14047;50.936;4.654;2022-11-15T08:25:21;11.50;99.90
26336;DHT22;14047;50.936;4.654;2022-11-15T08:27:47;11.50;99.90
26336;DHT22;14047;50.936;4.654;2022-11-15T08:30:12;11.60;99.90
26336;DHT22;14047;50.936;4.654;2022-11-15T08:32:39;11.70;99.90
26336;DHT22;14047;50.936;4.654;2022-11-15T08:35:05;11.80;99.90
26336;DHT22;14047;50.936;4.654;2022-11-15T08:37:31;11.70;99.90
26336;DHT22;14047;50.936;4.654;2022-11-15T08:39:56;11.60;99.90
26336;DHT22;14047;50.936;4.654;2022-11-15T08:42:22;11.60;99.90
26336;DHT22;14047;50.936;4.654;2022-11-15T08:44:48;11.70;99.90
26336;DHT22;14047;50.936;4.654;2022-11-15T08:47:13;11.70;99.90
26336;DHT22;14047;50.936;4.654;2022-11-15T08:49:39;11.90;99.90
26336;DHT22;14047;50.936;4.654;2022-11-15T08:52:05;11.80;99.90
26336;DHT22;14047;50.936;4.654;2022-11-15T08:54:30;11.90;99.90
26336;DHT22;14047;50.936;4.654;2022-11-15T08:56:57;12.00;99.90
26336;DHT22;14047;50.936;4.654;2022-11-15T08:59:22;12.00;99.90
26336;DHT22;14047;50.936;4.654;2022-11-15T09:01:48;12.00;99.90
26336;DHT22;14047;50.936;4.654;2022-11-15T09:04:13;12.20;99.90
26336;DHT22;14047;50.936;4.654;2022-11-15T09:06:39;12.20;99.90
26336;DHT22;14047;50.936;4.654;2022-11-15T09:09:05;12.30;99.90
26336;DHT22;14047;50.936;4.654;2022-11-15T09:11:31;12.30;99.90
26336;DHT22;14047;50.936;4.654;2022-11-15T09:13:56;12.30;99.90
26336;DHT22;14047;50.936;4.654;2022-11-15T09:16:22;12.40;99.90
26336;DHT22;14047;50.936;4.654;2022-11-15T09:18:47;12.50;99.90
26336;DHT22;14047;50.936;4.654;2022-11-15T09:21:13;12.60;99.90
26336;DHT22;14047;50.936;4.654;2022-11-15T09:23:39;12.70;99.90
26336;DHT22;14047;50.936;4.654;2022-11-15T09:26:05;12.70;99.90
26336;DHT22;14047;50.936;4.654;2022-11-15T09:28:31;12.70;99.90
26336;DHT22;14047;50.936;4.654;2022-11-15T09:30:59;12.80;99.90
26336;DHT22;14047;50.936;4.654;2022-11-15T09:33:25;12.90;99.90
26336;DHT22;14047;50.936;4.654;2022-11-15T09:35:51;12.80;99.90
26336;DHT22;14047;50.936;4.654;2022-11-15T09:38:17;12.80;99.90
26336;DHT22;14047;50.936;4.654;2022-11-15T09:40:43;12.80;99.90
26336;DHT22;14047;50.936;4.654;2022-11-15T09:48:56;13.00;99.90
26336;DHT22;14047;50.936;4.654;2022-11-15T09:53:58;13.10;99.90
26336;DHT22;14047;50.936;4.654;2022-11-15T09:56:29;13.20;99.90
26336;DHT22;14047;50.936;4.654;2022-11-15T10:04:43;13.50;99.90
26336;DHT22;14047;50.936;4.654;2022-11-15T10:10:25;13.70;99.90
26336;DHT22;14047;50.936;4.654;2022-11-15T10:12:53;13.70;99.90
26336;DHT22;14047;50.936;4.654;2022-11-15T10:15:19;13.60;99.90
26336;DHT22;14047;50.936;4.654;2022-11-15T10:20:30;13.80;99.90
26336;DHT22;14047;50.936;4.654;2022-11-15T10:23:05;13.80;99.90
26336;DHT22;14047;50.936;4.654;2022-11-15T10:25:33;13.80;99.90
26336;DHT22;14047;50.936;4.654;2022-11-15T10:30:41;14.00;99.90
26336;DHT22;14047;50.936;4.654;2022-11-15T10:35:48;13.80;99.90
26336;DHT22;14047;50.936;4.654;2022-11-15T10:38:13;13.90;99.90
26336;DHT22;14047;50.936;4.654;2022-11-15T10:40:40;14.00;99.90
26336;DHT22;14047;50.936;4.654;2022-11-15T10:45:35;13.80;99.90
26336;DHT22;14047;50.936;4.654;2022-11-15T10:50:41;13.80;99.90
26336;DHT22;14047;50.936;4.654;2022-11-15T10:53:31;13.90;99.90
26336;DHT22;14047;50.936;4.654;2022-11-15T10:56:02;13.80;99.90
26336;DHT22;14047;50.936;4.654;2022-11-15T10:58:37;13.90;99.90
26336;DHT22;14047;50.936;4.654;2022-11-15T11:01:23;13.90;99.90
26336;DHT22;14047;50.936;4.654;2022-11-15T11:04:04;13.90;99.90
26336;DHT22;14047;50.936;4.654;2022-11-15T11:06:31;13.90;99.90
26336;DHT22;14047;50.936;4.654;2022-11-15T11:09:28;13.80;99.90
26336;DHT22;14047;50.936;4.654;2022-11-15T11:11:54;13.70;99.90
26336;DHT22;14047;50.936;4.654;2022-11-15T11:14:24;13.90;99.90
26336;DHT22;14047;50.936;4.654;2022-11-15T11:17:48;13.70;99.90
26336;DHT22;14047;50.936;4.654;2022-11-15T11:30:19;14.20;99.90
26336;DHT22;14047;50.936;4.654;2022-11-15T11:33:10;14.50;99.90
26336;DHT22;14047;50.936;4.654;2022-11-15T11:46:32;14.50;99.90
26336;DHT22;14047;50.936;4.654;2022-11-15T11:51:56;14.70;99.90
26336;DHT22;14047;50.936;4.654;2022-11-15T12:05:56;15.30;99.90
26336;DHT22;14047;50.936;4.654;2022-11-15T12:08:40;15.10;99.90
26336;DHT22;14047;50.936;4.654;2022-11-15T12:13:34;15.40;99.90
26336;DHT22;14047;50.936;4.654;2022-11-15T12:16:11;15.50;99.90
26336;DHT22;14047;50.936;4.654;2022-11-15T12:18:38;15.50;99.90
26336;DHT22;14047;50.936;4.654;2022-11-15T12:21:08;15.30;99.90
26336;DHT22;14047;50.936;4.654;2022-11-15T12:23:49;15.20;99.90
26336;DHT22;14047;50.936;4.654;2022-11-15T12:26:22;15.20;99.90
26336;DHT22;14047;50.936;4.654;2022-11-15T12:29:05;15.50;99.90
26336;DHT22;14047;50.936;4.654;2022-11-15T12:34:13;15.80;99.90
26336;DHT22;14047;50.936;4.654;2022-11-15T12:36:43;15.80;99.90
26336;DHT22;14047;50.936;4.654;2022-11-15T12:39:10;16.00;99.90
26336;DHT22;14047;50.936;4.654;2022-11-15T12:41:38;15.90;99.90
26336;DHT22;14047;50.936;4.654;2022-11-15T12:44:22;15.90;99.90
26336;DHT22;14047;50.936;4.654;2022-11-15T12:47:02;15.80;99.90
26336;DHT22;14047;50.936;4.654;2022-11-15T12:59:57;15.70;99.90
26336;DHT22;14047;50.936;4.654;2022-11-15T13:02:40;15.70;99.90
26336;DHT22;14047;50.936;4.654;2022-11-15T13:17:45;15.80;99.90
26336;DHT22;14047;50.936;4.654;2022-11-15T13:25:48;15.90;99.90
26336;DHT22;14047;50.936;4.654;2022-11-15T13:28:20;15.90;99.90
26336;DHT22;14047;50.936;4.654;2022-11-15T13:30:58;16.10;99.90
26336;DHT22;14047;50.936;4.654;2022-11-15T13:33:34;16.10;99.90
26336;DHT22;14047;50.936;4.654;2022-11-15T13:36:23;16.20;99.90
26336;DHT22;14047;50.936;4.654;2022-11-15T13:39:32;16.30;99.90
26336;DHT22;14047;50.936;4.654;2022-11-15T13:41:59;16.10;99.90
26336;DHT22;14047;50.936;4.654;2022-11-15T13:44:30;15.60;99.90
26336;DHT22;14047;50.936;4.654;2022-11-15T13:47:18;15.60;99.90
26336;DHT22;14047;50.936;4.654;2022-11-15T13:49:44;15.60;99.90
26336;DHT22;14047;50.936;4.654;2022-11-15T13:52:14;15.70;99.90
26336;DHT22;14047;50.936;4.654;2022-11-15T13:57:27;15.50;99.90
26336;DHT22;14047;50.936;4.654;2022-11-15T14:00:05;15.30;99.90
26336;DHT22;14047;50.936;4.654;2022-11-15T14:02:34;15.40;99.90
26336;DHT22;14047;50.936;4.654;2022-11-15T14:05:18;15.50;99.90
26336;DHT22;14047;50.936;4.654;2022-11-15T14:07:59;15.50;99.90
26336;DHT22;14047;50.936;4.654;2022-11-15T14:10:30;15.40;99.90
26336;DHT22;14047;50.936;4.654;2022-11-15T14:12:57;15.40;99.90
26336;DHT22;14047;50.936;4.654;2022-11-15T14:15:38;15.40;99.90
26336;DHT22;14047;50.936;4.654;2022-11-15T14:18:05;15.30;99.90
26336;DHT22;14047;50.936;4.654;2022-11-15T14:20:32;15.40;99.90
26336;DHT22;14047;50.936;4.654;2022-11-15T14:23:00;15.40;99.90
26336;DHT22;14047;50.936;4.654;2022-11-15T14:25:28;15.40;99.90
26336;DHT22;14047;50.936;4.654;2022-11-15T14:28:13;15.30;99.90
26336;DHT22;14047;50.936;4.654;2022-11-15T14:30:41;15.30;99.90
26336;DHT22;14047;50.936;4.654;2022-11-15T14:33:32;15.30;99.90
26336;DHT22;14047;50.936;4.654;2022-11-15T14:36:06;15.40;99.90
26336;DHT22;14047;50.936;4.654;2022-11-15T14:38:35;15.40;99.90
26336;DHT22;14047;50.936;4.654;2022-11-15T14:41:01;15.40;99.90
26336;DHT22;14047;50.936;4.654;2022-11-15T14:43:27;15.40;99.90
26336;DHT22;14047;50.936;4.654;2022-11-15T14:45:52;15.40;99.90
26336;DHT22;14047;50.936;4.654;2022-11-15T14:48:18;15.30;99.90
26336;DHT22;14047;50.936;4.654;2022-11-15T14:50:44;15.40;99.90
26336;DHT22;14047;50.936;4.654;2022-11-15T14:53:15;15.50;99.90
26336;DHT22;14047;50.936;4.654;2022-11-15T14:55:42;15.40;99.90
26336;DHT22;14047;50.936;4.654;2022-11-15T14:58:08;15.30;99.90
26336;DHT22;14047;50.936;4.654;2022-11-15T15:00:35;15.30;99.90
26336;DHT22;14047;50.936;4.654;2022-11-15T15:03:02;15.00;99.90
26336;DHT22;14047;50.936;4.654;2022-11-15T15:07:58;14.80;99.90
26336;DHT22;14047;50.936;4.654;2022-11-15T15:10:26;14.70;99.90
26336;DHT22;14047;50.936;4.654;2022-11-15T15:12:53;14.90;99.90
26336;DHT22;14047;50.936;4.654;2022-11-15T15:15:24;14.80;99.90
26336;DHT22;14047;50.936;4.654;2022-11-15T15:17:50;14.70;99.90
26336;DHT22;14047;50.936;4.654;2022-11-15T15:20:16;14.50;99.90
26336;DHT22;14047;50.936;4.654;2022-11-15T15:22:42;14.40;99.90
26336;DHT22;14047;50.936;4.654;2022-11-15T15:25:23;14.50;99.90
26336;DHT22;14047;50.936;4.654;2022-11-15T15:27:52;14.50;99.90
26336;DHT22;14047;50.936;4.654;2022-11-15T15:30:18;14.50;99.90
26336;DHT22;14047;50.936;4.654;2022-11-15T15:32:44;14.50;99.90
26336;DHT22;14047;50.936;4.654;2022-11-15T15:35:13;14.40;99.90
26336;DHT22;14047;50.936;4.654;2022-11-15T15:37:40;14.50;99.90
26336;DHT22;14047;50.936;4.654;2022-11-15T15:40:18;14.40;99.90
26336;DHT22;14047;50.936;4.654;2022-11-15T15:42:45;14.30;99.90
26336;DHT22;14047;50.936;4.654;2022-11-15T15:45:13;14.30;99.90
26336;DHT22;14047;50.936;4.654;2022-11-15T15:47:40;14.40;99.90
26336;DHT22;14047;50.936;4.654;2022-11-15T15:50:22;14.50;99.90
26336;DHT22;14047;50.936;4.654;2022-11-15T15:52:50;14.40;99.90
26336;DHT22;14047;50.936;4.654;2022-11-15T15:55:16;14.30;99.90
26336;DHT22;14047;50.936;4.654;2022-11-15T15:57:41;14.40;99.90
26336;DHT22;14047;50.936;4.654;2022-11-15T16:00:08;14.50;99.90
26336;DHT22;14047;50.936;4.654;2022-11-15T16:02:34;14.50;99.90
26336;DHT22;14047;50.936;4.654;2022-11-15T16:04:59;14.30;99.90
26336;DHT22;14047;50.936;4.654;2022-11-15T16:07:25;14.30;99.90
26336;DHT22;14047;50.936;4.654;2022-11-15T16:09:54;14.30;99.90
26336;DHT22;14047;50.936;4.654;2022-11-15T16:12:32;14.30;99.90
26336;DHT22;14047;50.936;4.654;2022-11-15T16:14:58;14.20;99.90
26336;DHT22;14047;50.936;4.654;2022-11-15T16:17:27;14.20;99.90
26336;DHT22;14047;50.936;4.654;2022-11-15T16:19:54;14.20;99.90
26336;DHT22;14047;50.936;4.654;2022-11-15T16:22:20;14.00;99.90
26336;DHT22;14047;50.936;4.654;2022-11-15T16:24:45;14.10;99.90
26336;DHT22;14047;50.936;4.654;2022-11-15T16:27:15;14.00;99.90
26336;DHT22;14047;50.936;4.654;2022-11-15T16:29:42;13.90;99.90
26336;DHT22;14047;50.936;4.654;2022-11-15T16:32:07;14.00;99.90
26336;DHT22;14047;50.936;4.654;2022-11-15T16:34:33;13.80;99.90
26336;DHT22;14047;50.936;4.654;2022-11-15T16:36:59;13.80;99.90
26336;DHT22;14047;50.936;4.654;2022-11-15T16:39:25;13.80;99.90
26336;DHT22;14047;50.936;4.654;2022-11-15T16:41:53;13.90;99.90
26336;DHT22;14047;50.936;4.654;2022-11-15T16:44:18;13.90;99.90
26336;DHT22;14047;50.936;4.654;2022-11-15T16:46:44;14.00;99.90
26336;DHT22;14047;50.936;4.654;2022-11-15T16:49:16;13.90;99.90
26336;DHT22;14047;50.936;4.654;2022-11-15T16:51:45;14.00;99.90
26336;DHT22;14047;50.936;4.654;2022-11-15T16:54:11;14.00;99.90
26336;DHT22;14047;50.936;4.654;2022-11-15T16:56:37;13.80;99.90
26336;DHT22;14047;50.936;4.654;2022-11-15T16:59:04;13.70;99.90
26336;DHT22;14047;50.936;4.654;2022-11-15T17:01:35;13.70;99.90
26336;DHT22;14047;50.936;4.654;2022-11-15T17:04:02;13.70;99.90
26336;DHT22;14047;50.936;4.654;2022-11-15T17:06:38;13.90;99.90
26336;DHT22;14047;50.936;4.654;2022-11-15T17:09:05;13.90;99.90
26336;DHT22;14047;50.936;4.654;2022-11-15T17:11:30;13.90;99.90
26336;DHT22;14047;50.936;4.654;2022-11-15T17:13:57;13.90;99.90
26336;DHT22;14047;50.936;4.654;2022-11-15T17:16:24;14.00;99.90
26336;DHT22;14047;50.936;4.654;2022-11-15T17:18:50;14.10;99.90
26336;DHT22;14047;50.936;4.654;2022-11-15T17:21:18;14.00;99.90
26336;DHT22;14047;50.936;4.654;2022-11-15T17:23:44;14.10;99.90
26336;DHT22;14047;50.936;4.654;2022-11-15T17:26:11;14.10;99.90
26336;DHT22;14047;50.936;4.654;2022-11-15T17:28:38;14.20;99.90
26336;DHT22;14047;50.936;4.654;2022-11-15T17:31:13;14.20;99.90
26336;DHT22;14047;50.936;4.654;2022-11-15T17:33:39;14.40;99.90
26336;DHT22;14047;50.936;4.654;2022-11-15T17:36:08;14.50;99.90
26336;DHT22;14047;50.936;4.654;2022-11-15T17:38:34;14.60;99.90
26336;DHT22;14047;50.936;4.654;2022-11-15T17:41:18;14.50;99.90
26336;DHT22;14047;50.936;4.654;2022-11-15T17:43:46;14.60;99.90
26336;DHT22;14047;50.936;4.654;2022-11-15T17:46:14;14.60;99.90
26336;DHT22;14047;50.936;4.654;2022-11-15T17:48:40;14.40;99.90
26336;DHT22;14047;50.936;4.654;2022-11-15T17:51:09;14.50;99.90
26336;DHT22;14047;50.936;4.654;2022-11-15T17:53:37;14.30;99.90
26336;DHT22;14047;50.936;4.654;2022-11-15T17:56:14;14.30;99.90
26336;DHT22;14047;50.936;4.654;2022-11-15T17:58:40;14.30;99.90
26336;DHT22;14047;50.936;4.654;2022-11-15T18:03:42;14.20;99.90